Time;durP1;ratioP1;P1;durP2;ratioP2;P2;SDS_P1;SDS_P2;PMS_P1;PMS_P2;Temp;Humidity;BMP_temperature;BMP_pressure;BME280_temperature;BME280_humidity;BME280_pressure;Samples;Min_cycle;Max_cycle;Signal;HPM_P1;HPM_P2
2022/12/20 00:04:11;;;;;;;3.77;1.57;;;15.00;68.10;;;;;;10496420;28;20049;-27
2022/12/20 00:09:13;;;;;;;4.20;1.88;;;15.60;65.40;;;;;;10495612;28;20505;-27
2022/12/20 00:14:15;;;;;;;2.87;1.60;;;15.30;67.60;;;;;;10494567;28;20063;-27
2022/12/20 00:19:18;;;;;;;6.07;1.60;;;15.70;65.10;;;;;;10495362;28;20111;-28
2022/12/20 00:24:20;;;;;;;1.63;1.25;;;16.00;63.50;;;;;;10492557;28;20084;-29
2022/12/20 00:29:22;;;;;;;3.33;1.60;;;16.10;63.30;;;;;;10491978;28;20086;-27
2022/12/20 00:34:25;;;;;;;3.20;2.27;;;15.90;64.00;;;;;;10490707;28;20454;-27
2022/12/20 00:39:27;;;;;;;1.45;1.30;;;15.40;66.80;;;;;;10495196;28;20144;-26
2022/12/20 00:44:28;;;;;;;2.23;1.17;;;15.60;65.70;;;;;;10491951;28;20141;-25
2022/12/20 00:49:31;;;;;;;1.93;0.97;;;16.40;61.80;;;;;;10493819;28;20072;-26
2022/12/20 00:54:34;;;;;;;2.38;1.10;;;16.40;62.00;;;;;;10492595;28;20056;-27
2022/12/20 00:59:36;;;;;;;1.95;1.23;;;16.50;61.10;;;;;;10493986;28;20517;-25
2022/12/20 01:04:39;;;;;;;2.75;1.38;;;16.50;61.30;;;;;;10495514;28;20436;-28
2022/12/20 01:09:41;;;;;;;5.57;1.38;;;16.50;61.20;;;;;;10494070;28;20064;-25
2022/12/20 01:14:43;;;;;;;3.23;1.17;;;16.40;61.60;;;;;;10494561;28;20141;-28
2022/12/20 01:19:46;;;;;;;2.90;1.20;;;16.20;62.30;;;;;;10493036;28;20619;-28
2022/12/20 01:24:48;;;;;;;8.23;1.40;;;16.50;61.50;;;;;;10494892;28;20045;-25
2022/12/20 01:29:51;;;;;;;1.52;1.10;;;16.50;61.20;;;;;;10489854;28;20045;-27
2022/12/20 01:34:55;;;;;;;2.78;1.52;;;16.40;61.60;;;;;;10491072;28;20053;-34
2022/12/20 01:39:57;;;;;;;2.03;1.25;;;16.50;61.20;;;;;;10492440;28;20040;-26
2022/12/20 01:45:00;;;;;;;2.30;1.57;;;16.40;61.50;;;;;;10490839;28;20079;-28
2022/12/20 01:50:06;;;;;;;2.50;1.23;;;16.40;61.50;;;;;;10488778;28;20044;-29
2022/12/20 01:55:12;;;;;;;2.20;1.42;;;16.30;61.70;;;;;;10487934;28;20052;-27
2022/12/20 02:00:16;;;;;;;2.08;1.35;;;16.20;62.20;;;;;;10490571;28;20055;-27
2022/12/20 02:05:22;;;;;;;2.28;1.00;;;16.40;61.70;;;;;;10491751;28;20123;-29
2022/12/20 02:10:31;;;;;;;1.10;0.98;;;16.30;62.40;;;;;;10484508;28;20045;-27
2022/12/20 02:15:47;;;;;;;2.35;1.30;;;16.20;62.50;;;;;;10486808;28;20495;-29
2022/12/20 02:21:14;;;;;;;2.30;1.67;;;16.10;63.50;;;;;;10488159;28;20422;-27
2022/12/20 02:26:42;;;;;;;1.77;1.25;;;16.10;63.10;;;;;;10489032;28;20417;-26
2022/12/20 02:31:55;;;;;;;2.38;1.30;;;16.30;62.50;;;;;;10490994;28;20059;-26
2022/12/20 02:36:57;;;;;;;3.10;1.50;;;16.40;62.10;;;;;;10490210;28;20118;-27
2022/12/20 02:42:03;;;;;;;1.60;0.93;;;16.30;62.10;;;;;;10485721;28;20569;-28
2022/12/20 02:47:11;;;;;;;2.03;1.25;;;16.00;63.50;;;;;;10486191;28;20913;-26
2022/12/20 02:52:15;;;;;;;1.85;1.40;;;16.20;62.50;;;;;;10488089;28;20098;-31
2022/12/20 02:57:20;;;;;;;1.88;0.90;;;16.10;62.80;;;;;;10485632;28;20134;-27
2022/12/20 03:02:24;;;;;;;1.48;1.10;;;16.10;63.40;;;;;;10489951;28;20378;-25
2022/12/20 03:07:29;;;;;;;1.83;1.10;;;16.30;62.50;;;;;;10487806;28;20086;-26
2022/12/20 03:12:31;;;;;;;2.67;1.80;;;16.30;62.10;;;;;;10488922;28;20058;-27
2022/12/20 03:17:34;;;;;;;3.27;1.40;;;15.80;63.90;;;;;;10487496;28;20568;-28
2022/12/20 03:22:36;;;;;;;1.92;1.17;;;15.80;64.50;;;;;;10489211;28;20139;-29
2022/12/20 03:27:38;;;;;;;1.83;1.00;;;16.10;63.20;;;;;;10487032;28;20407;-27
2022/12/20 03:32:41;;;;;;;2.93;1.80;;;16.00;63.50;;;;;;10494021;28;20501;-28
2022/12/20 03:37:43;;;;;;;4.22;1.90;;;15.80;64.30;;;;;;10496487;28;20088;-31
2022/12/20 03:42:45;;;;;;;1.27;1.00;;;15.40;67.50;;;;;;10495178;28;20055;-31
2022/12/20 03:47:48;;;;;;;1.70;1.33;;;16.10;63.50;;;;;;10495198;28;20051;-27
2022/12/20 03:52:50;;;;;;;2.42;1.52;;;15.60;66.00;;;;;;10496263;28;20462;-27
2022/12/20 03:57:52;;;;;;;2.22;1.40;;;15.60;65.60;;;;;;10493552;28;20145;-26
2022/12/20 04:02:55;;;;;;;2.67;1.50;;;15.20;67.30;;;;;;10494267;28;21364;-28
2022/12/20 04:07:57;;;;;;;4.10;1.42;;;15.40;68.40;;;;;;10497189;28;20050;-24
2022/12/20 04:12:59;;;;;;;1.27;1.17;;;16.10;64.10;;;;;;10494997;28;20143;-26
2022/12/20 04:18:02;;;;;;;3.73;1.17;;;15.50;66.80;;;;;;10496396;28;20139;-27
2022/12/20 04:23:04;;;;;;;2.22;1.60;;;15.70;66.00;;;;;;10494091;28;20057;-26
2022/12/20 04:28:06;;;;;;;1.67;1.10;;;15.10;70.60;;;;;;10497160;28;20500;-27
2022/12/20 04:33:09;;;;;;;1.97;1.30;;;15.80;65.30;;;;;;10497099;28;20048;-28
2022/12/20 04:38:11;;;;;;;1.48;1.17;;;16.10;63.30;;;;;;10493200;28;20510;-29
2022/12/20 04:43:13;;;;;;;1.77;1.10;;;16.30;62.90;;;;;;10490043;28;20048;-27
2022/12/20 04:48:16;;;;;;;3.40;1.23;;;15.80;65.30;;;;;;10493054;28;20048;-27
2022/12/20 04:58:38;;;;;;;1.30;1.20;;;15.80;67.60;;;;;;10495002;28;20049;-25
2022/12/20 05:03:41;;;;;;;1.87;1.40;;;16.20;63.40;;;;;;10492049;28;20040;-25
2022/12/20 05:08:43;;;;;;;2.20;1.23;;;15.70;68.30;;;;;;10491405;28;20049;-27
2022/12/20 05:13:45;;;;;;;3.10;1.30;;;16.10;63.70;;;;;;10490340;28;20163;-29
2022/12/20 05:18:48;;;;;;;1.57;1.13;;;16.10;63.90;;;;;;10490255;28;20148;-27
2022/12/20 05:29:09;;;;;;;1.45;1.20;;;16.20;63.50;;;;;;10490264;28;20044;-24
2022/12/20 05:34:12;;;;;;;1.70;1.30;;;16.40;62.60;;;;;;10492385;28;20133;-25
2022/12/20 05:39:14;;;;;;;3.58;1.80;;;16.30;62.80;;;;;;10489912;28;20440;-26
2022/12/20 05:44:16;;;;;;;1.20;1.10;;;16.00;64.80;;;;;;10490990;28;20079;-25
2022/12/20 05:49:19;;;;;;;3.95;1.45;;;16.30;63.50;;;;;;10490885;28;20132;-28
2022/12/20 05:54:22;;;;;;;2.17;1.13;;;16.00;64.80;;;;;;10491648;28;20127;-27
2022/12/20 05:59:23;;;;;;;3.65;1.75;;;16.30;63.70;;;;;;10488865;28;20048;-31
2022/12/20 06:04:27;;;;;;;0.97;0.90;;;16.10;64.60;;;;;;10490634;28;20152;-27
2022/12/20 06:09:29;;;;;;;2.17;0.98;;;16.40;63.70;;;;;;10487255;28;21003;-28
2022/12/20 06:14:31;;;;;;;1.65;1.30;;;15.80;66.90;;;;;;10485007;28;20393;-28
2022/12/20 06:19:34;;;;;;;4.50;1.27;;;16.00;65.80;;;;;;10482373;28;20469;-27
2022/12/20 06:24:37;;;;;;;1.35;1.23;;;15.80;66.90;;;;;;10483058;28;20076;-28
2022/12/20 06:29:39;;;;;;;;;;;14.50;74.40;;;;;;10483629;28;20436;-29
2022/12/20 06:34:42;;;;;;;2.67;1.17;;;15.50;69.40;;;;;;10483724;28;20009;-28
2022/12/20 06:39:44;;;;;;;3.60;1.30;;;16.30;65.00;;;;;;10486075;28;20143;-32
2022/12/20 06:44:45;;;;;;;2.63;1.00;;;16.50;63.80;;;;;;10485327;28;20421;-26
2022/12/20 06:49:49;;;;;;;3.47;1.30;;;16.20;64.90;;;;;;10477114;28;20552;-28
2022/12/20 06:54:50;;;;;;;1.33;1.00;;;16.30;65.20;;;;;;10479181;28;20566;-28
2022/12/20 06:59:52;;;;;;;1.25;0.90;;;16.60;63.70;;;;;;10481117;28;20145;-25
2022/12/20 07:04:56;;;;;;;1.92;1.25;;;16.70;63.10;;;;;;10479535;28;20068;-25
2022/12/20 07:09:58;;;;;;;4.53;1.17;;;16.50;64.10;;;;;;10481979;28;20052;-27
